createdAt,value
2022-10-05T00:00:10.931Z,0
2022-10-05T00:01:28.036Z,0
2022-10-05T00:02:45.140Z,0
2022-10-05T00:04:02.245Z,0
2022-10-05T00:05:19.349Z,0
2022-10-05T00:06:36.454Z,0
2022-10-05T00:07:53.558Z,0
2022-10-05T00:09:10.663Z,0
2022-10-05T00:10:27.767Z,0
2022-10-05T00:11:44.872Z,0
2022-10-05T00:13:01.976Z,0
2022-10-05T00:14:19.081Z,0
2022-10-05T00:15:36.185Z,0
2022-10-05T00:16:52.306Z,0
2022-10-05T00:18:09.411Z,0
2022-10-05T00:19:26.515Z,0
2022-10-05T00:20:43.620Z,0
2022-10-05T00:22:00.724Z,0
2022-10-05T00:23:17.829Z,0
2022-10-05T00:24:34.933Z,0
2022-10-05T00:25:52.038Z,0
2022-10-05T00:27:09.142Z,0
2022-10-05T00:28:26.247Z,0
2022-10-05T00:29:43.351Z,0
2022-10-05T00:31:00.456Z,0
2022-10-05T00:32:17.561Z,0
2022-10-05T00:33:33.681Z,0
2022-10-05T00:34:50.786Z,0
2022-10-05T00:36:07.890Z,0
2022-10-05T00:37:24.995Z,0
2022-10-05T00:38:42.099Z,0
2022-10-05T00:39:59.204Z,0
2022-10-05T00:41:16.308Z,0
2022-10-05T00:42:33.413Z,0
2022-10-05T00:43:50.518Z,0
2022-10-05T00:45:07.622Z,0
2022-10-05T00:46:24.727Z,0
2022-10-05T00:47:41.831Z,0
2022-10-05T00:48:58.936Z,0
2022-10-05T00:50:15.057Z,0
2022-10-05T00:51:32.161Z,0
2022-10-05T00:52:49.266Z,0
2022-10-05T00:54:06.369Z,0
2022-10-05T00:55:23.473Z,0
2022-10-05T00:56:40.578Z,0
2022-10-05T00:57:57.682Z,0
2022-10-05T00:59:14.787Z,0
2022-10-05T01:00:31.891Z,0
2022-10-05T01:01:48.996Z,0
2022-10-05T01:03:06.100Z,0
2022-10-05T01:04:23.205Z,0
2022-10-05T01:05:40.310Z,0
2022-10-05T01:06:56.430Z,0
2022-10-05T01:08:13.535Z,0
2022-10-05T01:09:30.639Z,0
2022-10-05T01:10:47.744Z,0
2022-10-05T01:12:04.848Z,0
2022-10-05T01:13:21.953Z,0
2022-10-05T01:14:39.057Z,0
2022-10-05T01:15:56.162Z,0
2022-10-05T01:17:13.267Z,0
2022-10-05T01:18:30.371Z,0
2022-10-05T01:19:47.475Z,0
2022-10-05T01:21:04.580Z,0
2022-10-05T01:22:21.684Z,0
2022-10-05T01:23:37.805Z,0
2022-10-05T01:24:54.909Z,0
2022-10-05T01:26:12.014Z,0
2022-10-05T01:27:29.119Z,0
2022-10-05T01:28:46.223Z,0
2022-10-05T01:30:03.328Z,0
2022-10-05T01:31:19.448Z,0
2022-10-05T01:32:36.553Z,0
2022-10-05T01:33:53.657Z,0
2022-10-05T01:35:10.762Z,0
2022-10-05T01:36:27.866Z,0
2022-10-05T01:37:44.971Z,0
2022-10-05T01:39:02.075Z,0
2022-10-05T01:40:19.180Z,0
2022-10-05T01:41:36.284Z,0
2022-10-05T01:42:53.389Z,0
2022-10-05T01:44:10.493Z,0
2022-10-05T01:45:27.598Z,0
2022-10-05T01:46:44.702Z,0
2022-10-05T01:48:00.823Z,0
2022-10-05T01:49:17.927Z,0
2022-10-05T01:50:35.032Z,0
2022-10-05T01:51:52.137Z,0
2022-10-05T01:53:09.241Z,0
2022-10-05T01:54:26.345Z,0
2022-10-05T01:55:43.450Z,0
2022-10-05T01:57:00.554Z,0
2022-10-05T01:58:17.659Z,0
2022-10-05T01:59:34.763Z,0
2022-10-05T02:00:51.868Z,0
2022-10-05T02:02:08.972Z,0
2022-10-05T02:03:26.077Z,0
2022-10-05T02:04:42.197Z,0
2022-10-05T02:05:59.302Z,0
2022-10-05T02:07:16.406Z,0
2022-10-05T02:08:33.511Z,0
2022-10-05T02:09:50.615Z,0
2022-10-05T02:11:07.720Z,0
2022-10-05T02:12:24.825Z,0
2022-10-05T02:13:41.929Z,0
2022-10-05T02:14:59.034Z,0
2022-10-05T02:16:16.138Z,0
2022-10-05T02:17:33.243Z,0
2022-10-05T02:18:50.347Z,0
2022-10-05T02:20:07.452Z,0
2022-10-05T02:21:23.572Z,0
2022-10-05T02:22:40.677Z,0
2022-10-05T02:23:57.782Z,0
2022-10-05T02:25:14.886Z,0
2022-10-05T02:26:31.991Z,0
2022-10-05T02:27:49.095Z,0
2022-10-05T02:29:06.200Z,0
2022-10-05T02:30:23.304Z,0
2022-10-05T02:31:40.409Z,0
2022-10-05T02:32:57.513Z,0
2022-10-05T02:34:14.618Z,0
2022-10-05T02:35:31.723Z,0
2022-10-05T02:36:48.827Z,0
2022-10-05T02:38:05.932Z,0
2022-10-05T02:39:22.052Z,0
2022-10-05T02:40:39.157Z,0
2022-10-05T02:41:56.261Z,0
2022-10-05T02:43:13.366Z,0
2022-10-05T02:44:30.470Z,0
2022-10-05T02:45:47.575Z,0
2022-10-05T02:47:04.680Z,0
2022-10-05T02:48:21.784Z,0
2022-10-05T02:49:38.889Z,0
2022-10-05T02:50:55.993Z,0
2022-10-05T02:52:13.098Z,0
2022-10-05T02:53:30.202Z,0
2022-10-05T02:54:47.307Z,0
2022-10-05T02:56:03.427Z,0
2022-10-05T02:57:20.532Z,0
2022-10-05T02:58:37.637Z,0
2022-10-05T02:59:54.741Z,0
2022-10-05T03:01:11.846Z,0
2022-10-05T03:02:28.950Z,0
2022-10-05T03:03:46.055Z,0
2022-10-05T03:05:03.159Z,0
2022-10-05T03:06:20.264Z,0
2022-10-05T03:07:37.368Z,0
2022-10-05T03:08:54.473Z,0
2022-10-05T03:10:11.577Z,0
2022-10-05T03:11:28.682Z,0
2022-10-05T03:12:44.802Z,0
2022-10-05T03:14:01.907Z,0
2022-10-05T03:15:19.011Z,0
2022-10-05T03:16:36.116Z,0
2022-10-05T03:17:53.221Z,0
2022-10-05T03:19:10.326Z,0
2022-10-05T03:20:27.430Z,0
2022-10-05T03:21:44.535Z,0
2022-10-05T03:23:01.639Z,0
2022-10-05T03:24:18.744Z,0
2022-10-05T03:25:35.848Z,0
2022-10-05T03:26:52.953Z,0
2022-10-05T03:28:10.057Z,0
2022-10-05T03:29:26.178Z,0
2022-10-05T03:30:43.282Z,0
2022-10-05T03:32:00.387Z,0
2022-10-05T03:33:17.491Z,0
2022-10-05T03:34:34.596Z,0
2022-10-05T03:35:51.700Z,0
2022-10-05T03:37:08.804Z,0
2022-10-05T03:38:25.909Z,0
2022-10-05T03:39:43.013Z,0
2022-10-05T03:41:00.118Z,0
2022-10-05T03:42:17.223Z,0
2022-10-05T03:43:34.327Z,0
2022-10-05T03:44:51.432Z,0
2022-10-05T03:46:07.552Z,0
2022-10-05T03:47:24.657Z,0
2022-10-05T03:48:41.761Z,0
2022-10-05T03:49:58.866Z,0
2022-10-05T03:51:15.970Z,0
2022-10-05T03:52:33.075Z,0
2022-10-05T03:53:50.179Z,0
2022-10-05T03:55:07.284Z,0
2022-10-05T03:56:24.388Z,0
2022-10-05T03:57:41.493Z,0
2022-10-05T03:58:58.597Z,0
2022-10-05T04:00:15.702Z,0
2022-10-05T04:01:32.806Z,0
2022-10-05T04:02:48.927Z,0
2022-10-05T04:04:06.032Z,0
2022-10-05T04:05:23.136Z,0
2022-10-05T04:06:40.241Z,0
2022-10-05T04:07:57.345Z,0
2022-10-05T04:09:14.450Z,0
2022-10-05T04:10:31.554Z,0
2022-10-05T04:11:48.659Z,0
2022-10-05T04:13:05.763Z,0
2022-10-05T04:14:22.868Z,0
2022-10-05T04:15:39.973Z,0
2022-10-05T04:16:57.077Z,0
2022-10-05T04:18:14.182Z,0
2022-10-05T04:19:30.302Z,0
2022-10-05T04:20:47.407Z,0
2022-10-05T04:22:04.511Z,0
2022-10-05T04:23:21.616Z,0
2022-10-05T04:24:38.721Z,0
2022-10-05T04:25:55.825Z,0
2022-10-05T04:27:12.930Z,0
2022-10-05T04:28:30.034Z,0
2022-10-05T04:29:47.139Z,0
2022-10-05T04:31:04.243Z,0
2022-10-05T04:32:21.348Z,0
2022-10-05T04:33:38.452Z,0
2022-10-05T04:34:55.557Z,0
2022-10-05T04:36:11.677Z,0
2022-10-05T04:37:28.782Z,0
2022-10-05T04:38:45.887Z,0
2022-10-05T04:40:02.991Z,0
2022-10-05T04:41:20.096Z,0
2022-10-05T04:42:37.200Z,0
2022-10-05T04:43:54.305Z,0
2022-10-05T04:45:11.409Z,0
2022-10-05T04:46:28.515Z,0
2022-10-05T04:47:45.620Z,0
2022-10-05T04:49:02.724Z,0
2022-10-05T04:50:19.829Z,0
2022-10-05T04:51:36.933Z,0
2022-10-05T04:52:53.054Z,0
2022-10-05T04:54:10.158Z,0
2022-10-05T04:55:27.263Z,0
2022-10-05T04:56:44.367Z,0
2022-10-05T04:58:01.472Z,0
2022-10-05T04:59:18.577Z,0
2022-10-05T05:00:35.681Z,0
2022-10-05T05:01:52.786Z,0
2022-10-05T05:03:09.890Z,0
2022-10-05T05:04:26.995Z,0
2022-10-05T05:05:44.099Z,0
2022-10-05T05:07:01.203Z,0
2022-10-05T05:08:18.308Z,0
2022-10-05T05:09:34.428Z,0
2022-10-05T05:10:51.533Z,0
2022-10-05T05:12:08.637Z,0
2022-10-05T05:13:25.742Z,0
2022-10-05T05:14:42.846Z,0
2022-10-05T05:15:59.951Z,0
2022-10-05T05:17:17.055Z,0
2022-10-05T05:18:34.159Z,0
2022-10-05T05:19:51.264Z,0
2022-10-05T05:21:08.368Z,0
2022-10-05T05:22:25.473Z,0
2022-10-05T05:23:42.577Z,0
2022-10-05T05:24:59.681Z,0
2022-10-05T05:26:15.802Z,0
2022-10-05T05:27:32.906Z,0
2022-10-05T05:28:50.011Z,5
2022-10-05T05:30:07.115Z,5
2022-10-05T05:31:24.219Z,5
2022-10-05T05:32:41.324Z,5
2022-10-05T05:33:58.429Z,11
2022-10-05T05:35:15.534Z,11
2022-10-05T05:36:32.638Z,11
2022-10-05T05:37:49.742Z,11
2022-10-05T05:39:06.847Z,11
2022-10-05T05:40:23.951Z,11
2022-10-05T05:41:41.055Z,11
2022-10-05T05:42:57.176Z,11
2022-10-05T05:44:14.280Z,11
2022-10-05T05:45:31.385Z,11
2022-10-05T05:46:48.489Z,16
2022-10-05T05:48:05.593Z,16
2022-10-05T05:49:21.714Z,22
2022-10-05T05:50:38.818Z,22
2022-10-05T05:51:55.923Z,28
2022-10-05T05:53:13.027Z,28
2022-10-05T05:54:30.131Z,28
2022-10-05T05:55:47.236Z,33
2022-10-05T05:57:04.340Z,33
2022-10-05T05:58:21.444Z,39
2022-10-05T05:59:38.549Z,39
2022-10-05T06:00:55.653Z,45
2022-10-05T06:02:12.758Z,45
2022-10-05T06:03:29.862Z,50
2022-10-05T06:04:46.966Z,45
2022-10-05T06:06:03.087Z,45
2022-10-05T06:07:20.192Z,50
2022-10-05T06:08:37.296Z,56
2022-10-05T06:09:54.401Z,56
2022-10-05T06:11:11.505Z,56
2022-10-05T06:12:28.609Z,56
2022-10-05T06:13:45.713Z,50
2022-10-05T06:15:02.818Z,45
2022-10-05T06:16:19.922Z,45
2022-10-05T06:17:37.027Z,45
2022-10-05T06:18:54.131Z,45
2022-10-05T06:20:11.236Z,50
2022-10-05T06:21:28.340Z,50
2022-10-05T06:22:44.460Z,56
2022-10-05T06:24:01.565Z,61
2022-10-05T06:25:18.669Z,56
2022-10-05T06:26:35.774Z,45
2022-10-05T06:27:52.878Z,56
2022-10-05T06:29:09.983Z,56
2022-10-05T06:30:27.087Z,50
2022-10-05T06:31:44.191Z,67
2022-10-05T06:33:01.294Z,67
2022-10-05T06:34:18.398Z,78
2022-10-05T06:35:35.502Z,95
2022-10-05T06:36:52.607Z,129
2022-10-05T06:38:09.711Z,151
2022-10-05T06:39:25.832Z,157
2022-10-05T06:40:42.937Z,157
2022-10-05T06:42:00.041Z,157
2022-10-05T06:43:17.146Z,157
2022-10-05T06:44:34.250Z,157
2022-10-05T06:45:51.354Z,191
2022-10-05T06:47:08.459Z,168
2022-10-05T06:48:25.563Z,196
2022-10-05T06:49:42.668Z,225
2022-10-05T06:50:59.772Z,196
2022-10-05T06:52:16.877Z,208
2022-10-05T06:53:33.981Z,196
2022-10-05T06:54:51.086Z,219
2022-10-05T06:56:07.206Z,191
2022-10-05T06:57:24.311Z,196
2022-10-05T06:58:41.415Z,168
2022-10-05T06:59:58.519Z,146
2022-10-05T07:01:15.624Z,151
2022-10-05T07:02:32.729Z,146
2022-10-05T07:03:49.833Z,157
2022-10-05T07:05:06.937Z,163
2022-10-05T07:06:24.041Z,168
2022-10-05T07:07:41.146Z,180
2022-10-05T07:08:58.250Z,185
2022-10-05T07:10:15.354Z,196
2022-10-05T07:11:32.458Z,191
2022-10-05T07:12:48.579Z,213
2022-10-05T07:14:05.683Z,196
2022-10-05T07:15:22.787Z,208
2022-10-05T07:16:39.892Z,202
2022-10-05T07:17:56.996Z,208
2022-10-05T07:19:14.100Z,230
2022-10-05T07:20:31.204Z,241
2022-10-05T07:21:48.308Z,253
2022-10-05T07:23:05.413Z,241
2022-10-05T07:24:22.517Z,236
2022-10-05T07:25:39.622Z,253
2022-10-05T07:26:56.726Z,253
2022-10-05T07:28:13.830Z,241
2022-10-05T07:29:29.950Z,241
2022-10-05T07:30:47.055Z,236
2022-10-05T07:32:04.159Z,219
2022-10-05T07:33:21.263Z,236
2022-10-05T07:34:38.367Z,230
2022-10-05T07:35:55.471Z,225
2022-10-05T07:37:12.576Z,225
2022-10-05T07:38:29.680Z,225
2022-10-05T07:39:46.784Z,208
2022-10-05T07:41:03.889Z,202
2022-10-05T07:42:20.993Z,225
2022-10-05T07:43:38.097Z,208
2022-10-05T07:44:55.201Z,208
2022-10-05T07:46:11.322Z,213
2022-10-05T07:47:28.426Z,230
2022-10-05T07:48:45.530Z,219
2022-10-05T07:50:02.634Z,213
2022-10-05T07:51:19.738Z,225
2022-10-05T07:52:36.843Z,213
2022-10-05T07:53:53.947Z,213
2022-10-05T07:55:11.051Z,202
2022-10-05T07:56:28.155Z,202
2022-10-05T07:57:45.259Z,208
2022-10-05T07:59:02.363Z,208
2022-10-05T08:00:19.468Z,236
2022-10-05T08:01:36.572Z,225
2022-10-05T08:02:52.692Z,230
2022-10-05T08:04:09.796Z,258
2022-10-05T08:05:26.900Z,247
2022-10-05T08:06:44.004Z,241
2022-10-05T08:08:01.108Z,253
2022-10-05T08:09:18.213Z,236
2022-10-05T08:10:35.317Z,241
2022-10-05T08:11:52.421Z,253
2022-10-05T08:13:09.525Z,247
2022-10-05T08:14:26.629Z,258
2022-10-05T08:15:43.733Z,253
2022-10-05T08:17:00.837Z,253
2022-10-05T08:18:17.942Z,286
2022-10-05T08:19:34.062Z,281
2022-10-05T08:20:51.167Z,286
2022-10-05T08:22:08.271Z,315
2022-10-05T08:23:25.375Z,331
2022-10-05T08:24:42.480Z,320
2022-10-05T08:25:59.584Z,320
2022-10-05T08:27:16.689Z,303
2022-10-05T08:28:33.793Z,286
2022-10-05T08:29:50.897Z,286
2022-10-05T08:31:08.002Z,270
2022-10-05T08:32:25.106Z,264
2022-10-05T08:33:42.210Z,264
2022-10-05T08:34:59.316Z,270
2022-10-05T08:36:15.436Z,275
2022-10-05T08:37:32.541Z,264
2022-10-05T08:38:49.645Z,264
2022-10-05T08:40:06.749Z,270
2022-10-05T08:41:23.854Z,264
2022-10-05T08:42:40.958Z,270
2022-10-05T08:43:58.063Z,270
2022-10-05T08:45:15.167Z,270
2022-10-05T08:46:32.272Z,286
2022-10-05T08:47:49.377Z,286
2022-10-05T08:49:06.481Z,298
2022-10-05T08:50:23.586Z,309
2022-10-05T08:51:40.690Z,320
2022-10-05T08:52:56.811Z,315
2022-10-05T08:54:13.915Z,326
2022-10-05T08:55:31.020Z,331
2022-10-05T08:56:48.124Z,343
2022-10-05T08:58:05.229Z,337
2022-10-05T08:59:22.333Z,331
2022-10-05T09:00:39.437Z,326
2022-10-05T09:01:56.542Z,343
2022-10-05T09:03:13.646Z,331
2022-10-05T09:04:30.750Z,343
2022-10-05T09:05:47.854Z,326
2022-10-05T09:07:04.958Z,320
2022-10-05T09:08:22.061Z,343
2022-10-05T09:09:38.182Z,337
2022-10-05T09:10:55.286Z,343
2022-10-05T09:12:12.389Z,348
2022-10-05T09:13:29.493Z,360
2022-10-05T09:14:46.597Z,365
2022-10-05T09:16:03.701Z,382
2022-10-05T09:17:20.805Z,393
2022-10-05T09:18:37.909Z,421
2022-10-05T09:19:55.013Z,399
2022-10-05T09:21:12.118Z,405
2022-10-05T09:22:29.222Z,405
2022-10-05T09:23:46.326Z,388
2022-10-05T09:25:03.430Z,371
2022-10-05T09:26:19.550Z,371
2022-10-05T09:27:36.655Z,388
2022-10-05T09:28:53.759Z,371
2022-10-05T09:30:10.863Z,365
2022-10-05T09:31:27.967Z,365
2022-10-05T09:32:45.071Z,382
2022-10-05T09:34:02.175Z,365
2022-10-05T09:35:19.279Z,365
2022-10-05T09:36:36.383Z,365
2022-10-05T09:37:53.488Z,360
2022-10-05T09:39:10.592Z,343
2022-10-05T09:40:27.696Z,343
2022-10-05T09:41:44.800Z,360
2022-10-05T09:43:00.921Z,343
2022-10-05T09:44:18.025Z,337
2022-10-05T09:45:35.129Z,348
2022-10-05T09:46:52.233Z,360
2022-10-05T09:48:09.337Z,365
2022-10-05T09:49:26.442Z,360
2022-10-05T09:50:43.546Z,360
2022-10-05T09:52:00.650Z,360
2022-10-05T09:53:17.754Z,388
2022-10-05T09:54:34.858Z,399
2022-10-05T09:55:51.962Z,410
2022-10-05T09:57:09.067Z,399
2022-10-05T09:58:26.171Z,433
2022-10-05T09:59:42.291Z,427
2022-10-05T10:00:59.395Z,438
2022-10-05T10:02:16.500Z,450
2022-10-05T10:03:33.604Z,472
2022-10-05T10:04:50.708Z,478
2022-10-05T10:06:07.812Z,489
2022-10-05T10:07:23.933Z,511
2022-10-05T10:08:41.037Z,511
2022-10-05T10:09:58.141Z,534
2022-10-05T10:11:15.245Z,551
2022-10-05T10:12:32.349Z,540
2022-10-05T10:13:49.454Z,540
2022-10-05T10:15:06.558Z,573
2022-10-05T10:16:23.662Z,517
2022-10-05T10:17:40.766Z,534
2022-10-05T10:18:57.870Z,528
2022-10-05T10:20:14.974Z,568
2022-10-05T10:21:32.078Z,556
2022-10-05T10:22:49.182Z,562
2022-10-05T10:24:05.302Z,697
2022-10-05T10:25:22.406Z,618
2022-10-05T10:26:39.510Z,641
2022-10-05T10:27:56.614Z,646
2022-10-05T10:29:13.718Z,652
2022-10-05T10:30:30.822Z,697
2022-10-05T10:31:47.926Z,708
2022-10-05T10:33:05.030Z,714
2022-10-05T10:34:22.134Z,731
2022-10-05T10:35:39.238Z,720
2022-10-05T10:36:56.342Z,680
2022-10-05T10:38:13.446Z,652
2022-10-05T10:39:30.550Z,691
2022-10-05T10:40:46.670Z,736
2022-10-05T10:42:03.774Z,691
2022-10-05T10:43:20.878Z,697
2022-10-05T10:44:37.982Z,714
2022-10-05T10:45:55.087Z,708
2022-10-05T10:47:12.191Z,669
2022-10-05T10:48:29.295Z,714
2022-10-05T10:49:46.399Z,601
2022-10-05T10:51:03.503Z,551
2022-10-05T10:52:20.607Z,601
2022-10-05T10:53:37.712Z,663
2022-10-05T10:54:54.816Z,596
2022-10-05T10:56:11.921Z,601
2022-10-05T10:57:28.041Z,613
2022-10-05T10:58:45.145Z,562
2022-10-05T11:00:02.249Z,579
2022-10-05T11:01:19.353Z,686
2022-10-05T11:02:36.457Z,703
2022-10-05T11:03:53.562Z,680
2022-10-05T11:05:10.666Z,697
2022-10-05T11:06:27.770Z,528
2022-10-05T11:07:44.875Z,624
2022-10-05T11:09:01.979Z,613
2022-10-05T11:10:19.083Z,596
2022-10-05T11:11:36.187Z,540
2022-10-05T11:12:53.291Z,534
2022-10-05T11:14:09.412Z,551
2022-10-05T11:15:26.517Z,556
2022-10-05T11:16:43.621Z,556
2022-10-05T11:18:00.725Z,568
2022-10-05T11:19:17.830Z,568
2022-10-05T11:20:34.934Z,579
2022-10-05T11:21:52.039Z,523
2022-10-05T11:23:09.143Z,540
2022-10-05T11:24:26.248Z,607
2022-10-05T11:25:43.352Z,568
2022-10-05T11:27:00.456Z,568
2022-10-05T11:28:17.560Z,585
2022-10-05T11:29:34.665Z,658
2022-10-05T11:30:50.785Z,478
2022-10-05T11:32:07.890Z,433
2022-10-05T11:33:24.995Z,410
2022-10-05T11:34:42.099Z,461
2022-10-05T11:35:59.203Z,461
2022-10-05T11:37:16.307Z,438
2022-10-05T11:38:33.412Z,393
2022-10-05T11:39:50.516Z,371
2022-10-05T11:41:07.621Z,500
2022-10-05T11:42:24.725Z,438
2022-10-05T11:43:41.830Z,438
2022-10-05T11:44:58.934Z,331
2022-10-05T11:46:16.038Z,438
2022-10-05T11:47:32.158Z,405
2022-10-05T11:48:49.262Z,427
2022-10-05T11:50:06.366Z,472
2022-10-05T11:51:23.470Z,556
2022-10-05T11:52:40.574Z,483
2022-10-05T11:53:57.678Z,343
2022-10-05T11:55:14.782Z,337
2022-10-05T11:56:31.886Z,275
2022-10-05T11:57:48.990Z,309
2022-10-05T11:59:06.094Z,360
2022-10-05T12:00:23.198Z,360
2022-10-05T12:01:40.302Z,264
2022-10-05T12:02:57.406Z,292
2022-10-05T12:04:13.526Z,405
2022-10-05T12:05:30.630Z,405
2022-10-05T12:06:47.734Z,286
2022-10-05T12:08:04.838Z,376
2022-10-05T12:09:21.942Z,382
2022-10-05T12:10:39.046Z,360
2022-10-05T12:11:56.150Z,354
2022-10-05T12:13:13.254Z,348
2022-10-05T12:14:30.358Z,354
2022-10-05T12:15:47.462Z,326
2022-10-05T12:17:04.566Z,337
2022-10-05T12:18:21.670Z,258
2022-10-05T12:19:38.774Z,331
2022-10-05T12:20:54.894Z,348
2022-10-05T12:22:11.997Z,270
2022-10-05T12:23:29.101Z,337
2022-10-05T12:24:46.205Z,354
2022-10-05T12:26:03.310Z,382
2022-10-05T12:27:20.413Z,371
2022-10-05T12:28:37.517Z,354
2022-10-05T12:29:54.621Z,331
2022-10-05T12:31:11.725Z,326
2022-10-05T12:32:28.829Z,320
2022-10-05T12:33:45.933Z,315
2022-10-05T12:35:03.037Z,315
2022-10-05T12:36:20.141Z,309
2022-10-05T12:37:36.262Z,309
2022-10-05T12:38:53.365Z,309
2022-10-05T12:40:10.469Z,309
2022-10-05T12:41:27.573Z,315
2022-10-05T12:42:44.677Z,309
2022-10-05T12:44:01.781Z,309
2022-10-05T12:45:18.885Z,309
2022-10-05T12:46:35.989Z,309
2022-10-05T12:47:53.093Z,303
2022-10-05T12:49:10.197Z,309
2022-10-05T12:50:27.301Z,309
2022-10-05T12:51:44.405Z,309
2022-10-05T12:53:01.509Z,309
2022-10-05T12:54:17.629Z,309
2022-10-05T12:55:34.733Z,309
2022-10-05T12:56:51.837Z,315
2022-10-05T12:58:08.941Z,309
2022-10-05T12:59:26.045Z,309
2022-10-05T13:00:43.149Z,309
2022-10-05T13:02:00.253Z,309
2022-10-05T13:03:17.357Z,303
2022-10-05T13:04:34.461Z,303
2022-10-05T13:05:51.565Z,309
2022-10-05T13:07:08.669Z,303
2022-10-05T13:08:25.773Z,303
2022-10-05T13:09:42.877Z,303
2022-10-05T13:10:58.997Z,309
2022-10-05T13:12:16.101Z,309
2022-10-05T13:13:33.205Z,303
2022-10-05T13:14:50.309Z,303
2022-10-05T13:16:07.413Z,303
2022-10-05T13:17:24.517Z,303
2022-10-05T13:18:41.621Z,303
2022-10-05T13:19:58.724Z,303
2022-10-05T13:21:15.827Z,303
2022-10-05T13:22:32.931Z,309
2022-10-05T13:23:50.035Z,309
2022-10-05T13:25:07.139Z,309
2022-10-05T13:26:24.243Z,303
2022-10-05T13:27:40.363Z,303
2022-10-05T13:28:57.467Z,303
2022-10-05T13:30:14.570Z,303
2022-10-05T13:31:31.674Z,303
2022-10-05T13:32:48.779Z,303
2022-10-05T13:34:05.883Z,303
2022-10-05T13:35:22.986Z,303
2022-10-05T13:36:40.090Z,303
2022-10-05T13:37:57.194Z,303
2022-10-05T13:39:14.298Z,303
2022-10-05T13:40:31.402Z,303
2022-10-05T13:41:48.506Z,303
2022-10-05T13:43:05.610Z,303
2022-10-05T13:44:21.731Z,303
2022-10-05T13:45:38.834Z,303
2022-10-05T13:46:55.938Z,303
2022-10-05T13:48:13.042Z,303
2022-10-05T13:49:30.146Z,303
2022-10-05T13:50:47.250Z,303
2022-10-05T13:52:04.354Z,303
2022-10-05T13:53:21.458Z,303
2022-10-05T13:54:38.563Z,303
2022-10-05T13:55:55.667Z,303
2022-10-05T13:57:12.770Z,303
2022-10-05T13:58:29.874Z,303
2022-10-05T13:59:46.978Z,303
2022-10-05T14:01:03.098Z,303
2022-10-05T14:02:20.203Z,303
2022-10-05T14:03:37.307Z,303
2022-10-05T14:04:54.411Z,303
2022-10-05T14:06:11.515Z,303
2022-10-05T14:07:28.619Z,303
2022-10-05T14:08:45.723Z,298
2022-10-05T14:10:02.827Z,298
2022-10-05T14:11:19.931Z,298
2022-10-05T14:12:37.034Z,298
2022-10-05T14:13:54.138Z,298
2022-10-05T14:15:11.242Z,298
2022-10-05T14:16:28.347Z,298
2022-10-05T14:17:44.467Z,298
2022-10-05T14:19:01.571Z,298
2022-10-05T14:20:18.675Z,292
2022-10-05T14:21:35.779Z,292
2022-10-05T14:22:52.883Z,292
2022-10-05T14:24:09.987Z,292
2022-10-05T14:25:26.107Z,292
2022-10-05T14:26:43.212Z,286
2022-10-05T14:28:00.316Z,286
2022-10-05T14:29:17.420Z,286
2022-10-05T14:30:34.524Z,286
2022-10-05T14:31:51.628Z,286
2022-10-05T14:33:08.732Z,286
2022-10-05T14:34:25.836Z,286
2022-10-05T14:35:42.939Z,286
2022-10-05T14:37:00.043Z,286
2022-10-05T14:38:17.147Z,286
2022-10-05T14:39:34.251Z,281
2022-10-05T14:40:51.355Z,281
2022-10-05T14:42:07.475Z,281
2022-10-05T14:43:24.579Z,281
2022-10-05T14:44:41.683Z,281
2022-10-05T14:45:58.787Z,281
2022-10-05T14:47:15.891Z,275
2022-10-05T14:48:32.995Z,275
2022-10-05T14:49:50.099Z,275
2022-10-05T14:51:07.203Z,270
2022-10-05T14:52:24.307Z,275
2022-10-05T14:53:41.411Z,270
2022-10-05T14:54:58.515Z,270
2022-10-05T14:56:15.619Z,270
2022-10-05T14:57:32.723Z,270
2022-10-05T14:58:48.843Z,270
2022-10-05T15:00:05.947Z,264
2022-10-05T15:01:23.051Z,264
2022-10-05T15:02:40.155Z,264
2022-10-05T15:03:57.259Z,264
2022-10-05T15:05:14.363Z,264
2022-10-05T15:06:31.467Z,264
2022-10-05T15:07:48.571Z,264
2022-10-05T15:09:05.675Z,258
2022-10-05T15:10:22.779Z,258
2022-10-05T15:11:39.882Z,258
2022-10-05T15:12:56.987Z,258
2022-10-05T15:14:14.091Z,253
2022-10-05T15:15:30.211Z,253
2022-10-05T15:16:47.315Z,247
2022-10-05T15:18:04.419Z,247
2022-10-05T15:19:21.523Z,247
2022-10-05T15:20:38.627Z,247
2022-10-05T15:21:55.731Z,247
2022-10-05T15:23:12.835Z,241
2022-10-05T15:24:29.940Z,241
2022-10-05T15:25:47.044Z,241
2022-10-05T15:27:04.148Z,241
2022-10-05T15:28:21.252Z,236
2022-10-05T15:29:38.356Z,236
2022-10-05T15:30:55.460Z,236
2022-10-05T15:32:11.580Z,230
2022-10-05T15:33:28.684Z,230
2022-10-05T15:34:45.788Z,230
2022-10-05T15:36:02.892Z,225
2022-10-05T15:37:19.996Z,225
2022-10-05T15:38:37.100Z,225
2022-10-05T15:39:54.204Z,219
2022-10-05T15:41:11.308Z,219
2022-10-05T15:42:28.412Z,213
2022-10-05T15:43:45.516Z,213
2022-10-05T15:45:02.620Z,213
2022-10-05T15:46:19.725Z,208
2022-10-05T15:47:36.829Z,202
2022-10-05T15:48:52.949Z,202
2022-10-05T15:50:10.054Z,196
2022-10-05T15:51:27.158Z,196
2022-10-05T15:52:44.262Z,191
2022-10-05T15:54:01.366Z,191
2022-10-05T15:55:18.471Z,185
2022-10-05T15:56:35.575Z,185
2022-10-05T15:57:52.679Z,180
2022-10-05T15:59:09.783Z,180
2022-10-05T16:00:26.887Z,174
2022-10-05T16:01:43.992Z,174
2022-10-05T16:03:01.096Z,168
2022-10-05T16:04:18.200Z,168
2022-10-05T16:05:34.320Z,163
2022-10-05T16:06:51.424Z,157
2022-10-05T16:08:08.528Z,151
2022-10-05T16:09:25.633Z,151
2022-10-05T16:10:42.737Z,146
2022-10-05T16:11:59.841Z,140
2022-10-05T16:13:16.945Z,140
2022-10-05T16:14:34.049Z,135
2022-10-05T16:15:51.153Z,129
2022-10-05T16:17:08.257Z,123
2022-10-05T16:18:25.361Z,118
2022-10-05T16:19:42.466Z,118
2022-10-05T16:20:59.570Z,112
2022-10-05T16:22:15.691Z,106
2022-10-05T16:23:32.795Z,106
2022-10-05T16:24:49.899Z,101
2022-10-05T16:26:07.003Z,95
2022-10-05T16:27:24.107Z,95
2022-10-05T16:28:41.211Z,90
2022-10-05T16:29:58.315Z,84
2022-10-05T16:31:15.419Z,84
2022-10-05T16:32:32.523Z,78
2022-10-05T16:33:49.627Z,78
2022-10-05T16:35:06.731Z,73
2022-10-05T16:36:23.834Z,67
2022-10-05T16:37:40.938Z,61
2022-10-05T16:38:57.058Z,61
2022-10-05T16:40:14.162Z,56
2022-10-05T16:41:31.267Z,50
2022-10-05T16:42:48.371Z,50
2022-10-05T16:44:05.475Z,45
2022-10-05T16:45:22.578Z,45
2022-10-05T16:46:39.682Z,39
2022-10-05T16:47:56.786Z,33
2022-10-05T16:49:13.889Z,33
2022-10-05T16:50:30.993Z,28
2022-10-05T16:51:48.097Z,28
2022-10-05T16:53:05.201Z,22
2022-10-05T16:54:22.304Z,22
2022-10-05T16:55:38.424Z,16
2022-10-05T16:56:55.528Z,16
2022-10-05T16:58:12.632Z,11
2022-10-05T16:59:29.735Z,11
2022-10-05T17:00:46.839Z,11
2022-10-05T17:02:03.943Z,5
2022-10-05T17:03:21.047Z,5
2022-10-05T17:04:38.151Z,5
2022-10-05T17:05:55.255Z,0
2022-10-05T17:07:12.358Z,0
2022-10-05T17:08:29.462Z,0
2022-10-05T17:09:46.566Z,0
2022-10-05T17:11:03.670Z,0
2022-10-05T17:12:19.790Z,0
2022-10-05T17:13:36.893Z,0
2022-10-05T17:14:53.997Z,0
2022-10-05T17:16:11.101Z,0
2022-10-05T17:17:28.205Z,0
2022-10-05T17:18:45.309Z,0
2022-10-05T17:20:02.412Z,0
2022-10-05T17:21:19.516Z,0
2022-10-05T17:22:36.620Z,0
2022-10-05T17:23:53.724Z,0
2022-10-05T17:25:10.828Z,0
2022-10-05T17:26:27.932Z,0
2022-10-05T17:27:45.036Z,0
2022-10-05T17:29:01.156Z,0
2022-10-05T17:30:18.260Z,0
2022-10-05T17:31:35.364Z,0
2022-10-05T17:32:52.469Z,0
2022-10-05T17:34:09.573Z,0
2022-10-05T17:35:26.677Z,0
2022-10-05T17:36:43.781Z,0
2022-10-05T17:38:00.885Z,0
2022-10-05T17:39:17.989Z,0
2022-10-05T17:40:35.093Z,0
2022-10-05T17:41:52.197Z,0
2022-10-05T17:43:09.301Z,0
2022-10-05T17:44:26.405Z,0
2022-10-05T17:45:42.524Z,0
2022-10-05T17:46:59.628Z,0
2022-10-05T17:48:16.732Z,0
2022-10-05T17:49:33.836Z,0
2022-10-05T17:50:50.940Z,0
2022-10-05T17:52:08.043Z,0
2022-10-05T17:53:25.147Z,0
2022-10-05T17:54:42.251Z,0
2022-10-05T17:55:59.355Z,0
2022-10-05T17:57:16.459Z,0
2022-10-05T17:58:33.562Z,0
2022-10-05T17:59:50.667Z,0
2022-10-05T18:01:07.770Z,0
2022-10-05T18:02:23.890Z,0
2022-10-05T18:03:40.994Z,0
2022-10-05T18:04:58.098Z,0
2022-10-05T18:06:15.202Z,0
2022-10-05T18:07:32.305Z,0
2022-10-05T18:08:49.409Z,0
2022-10-05T18:10:06.513Z,0
2022-10-05T18:11:23.617Z,0